sensor_id;sensor_type;location;lat;lon;timestamp;P1;durP1;ratioP1;P2;durP2;ratioP2
76131;SDS011;64877;50.994;13.650;2024-03-02T00:01:03;60.97;;;34.35;;
76131;SDS011;64877;50.994;13.650;2024-03-02T00:03:28;63.40;;;34.85;;
76131;SDS011;64877;50.994;13.650;2024-03-02T00:05:54;59.20;;;31.77;;
76131;SDS011;64877;50.994;13.650;2024-03-02T00:08:26;51.78;;;28.80;;
76131;SDS011;64877;50.994;13.650;2024-03-02T00:10:51;53.92;;;29.02;;
76131;SDS011;64877;50.994;13.650;2024-03-02T00:13:22;48.28;;;28.50;;
76131;SDS011;64877;50.994;13.650;2024-03-02T00:15:51;50.72;;;29.67;;
76131;SDS011;64877;50.994;13.650;2024-03-02T00:18:24;47.20;;;26.15;;
76131;SDS011;64877;50.994;13.650;2024-03-02T00:20:57;53.03;;;29.80;;
76131;SDS011;64877;50.994;13.650;2024-03-02T00:23:24;47.70;;;28.20;;
76131;SDS011;64877;50.994;13.650;2024-03-02T00:25:55;55.00;;;30.73;;
76131;SDS011;64877;50.994;13.650;2024-03-02T00:28:22;50.58;;;28.85;;
76131;SDS011;64877;50.994;13.650;2024-03-02T00:33:30;63.65;;;32.05;;
76131;SDS011;64877;50.994;13.650;2024-03-02T00:35:57;59.20;;;30.80;;
76131;SDS011;64877;50.994;13.650;2024-03-02T00:38:25;56.17;;;30.38;;
76131;SDS011;64877;50.994;13.650;2024-03-02T00:40:51;50.72;;;28.73;;
76131;SDS011;64877;50.994;13.650;2024-03-02T00:45:54;51.60;;;30.55;;
76131;SDS011;64877;50.994;13.650;2024-03-02T00:48:20;54.08;;;29.23;;
76131;SDS011;64877;50.994;13.650;2024-03-02T00:50:46;51.03;;;29.55;;
76131;SDS011;64877;50.994;13.650;2024-03-02T00:53:11;52.20;;;30.67;;
76131;SDS011;64877;50.994;13.650;2024-03-02T00:55:38;53.25;;;29.40;;
76131;SDS011;64877;50.994;13.650;2024-03-02T00:58:04;61.20;;;31.23;;
76131;SDS011;64877;50.994;13.650;2024-03-02T01:00:30;55.88;;;31.02;;
76131;SDS011;64877;50.994;13.650;2024-03-02T01:02:55;48.42;;;29.20;;
76131;SDS011;64877;50.994;13.650;2024-03-02T01:05:21;49.13;;;27.15;;
76131;SDS011;64877;50.994;13.650;2024-03-02T01:07:46;48.47;;;28.02;;
76131;SDS011;64877;50.994;13.650;2024-03-02T01:10:12;46.35;;;28.67;;
76131;SDS011;64877;50.994;13.650;2024-03-02T01:12:37;52.03;;;29.77;;
76131;SDS011;64877;50.994;13.650;2024-03-02T01:15:02;54.47;;;30.58;;
76131;SDS011;64877;50.994;13.650;2024-03-02T01:17:31;51.58;;;28.88;;
76131;SDS011;64877;50.994;13.650;2024-03-02T01:19:56;53.90;;;27.95;;
76131;SDS011;64877;50.994;13.650;2024-03-02T01:22:22;49.22;;;29.73;;
76131;SDS011;64877;50.994;13.650;2024-03-02T01:24:50;47.47;;;28.95;;
76131;SDS011;64877;50.994;13.650;2024-03-02T01:27:16;50.28;;;28.73;;
76131;SDS011;64877;50.994;13.650;2024-03-02T01:29:41;45.38;;;25.88;;
76131;SDS011;64877;50.994;13.650;2024-03-02T01:32:06;51.28;;;29.50;;
76131;SDS011;64877;50.994;13.650;2024-03-02T01:34:32;49.22;;;28.35;;
76131;SDS011;64877;50.994;13.650;2024-03-02T01:36:57;49.65;;;28.02;;
76131;SDS011;64877;50.994;13.650;2024-03-02T01:39:23;52.17;;;29.90;;
76131;SDS011;64877;50.994;13.650;2024-03-02T01:41:48;50.22;;;28.58;;
76131;SDS011;64877;50.994;13.650;2024-03-02T01:44:13;62.35;;;34.03;;
76131;SDS011;64877;50.994;13.650;2024-03-02T01:46:39;58.72;;;30.15;;
76131;SDS011;64877;50.994;13.650;2024-03-02T01:49:05;46.58;;;26.92;;
76131;SDS011;64877;50.994;13.650;2024-03-02T01:51:31;52.10;;;29.95;;
76131;SDS011;64877;50.994;13.650;2024-03-02T01:53:56;51.28;;;29.80;;
76131;SDS011;64877;50.994;13.650;2024-03-02T01:56:22;50.55;;;27.80;;
76131;SDS011;64877;50.994;13.650;2024-03-02T01:58:48;50.70;;;28.23;;
76131;SDS011;64877;50.994;13.650;2024-03-02T02:01:13;53.58;;;29.50;;
76131;SDS011;64877;50.994;13.650;2024-03-02T02:03:39;51.95;;;28.13;;
76131;SDS011;64877;50.994;13.650;2024-03-02T02:06:05;52.10;;;28.90;;
76131;SDS011;64877;50.994;13.650;2024-03-02T02:08:32;48.58;;;28.17;;
76131;SDS011;64877;50.994;13.650;2024-03-02T02:10:58;54.00;;;30.55;;
76131;SDS011;64877;50.994;13.650;2024-03-02T02:13:23;51.92;;;29.50;;
76131;SDS011;64877;50.994;13.650;2024-03-02T02:15:49;47.95;;;28.90;;
76131;SDS011;64877;50.994;13.650;2024-03-02T02:18:15;55.10;;;32.50;;
76131;SDS011;64877;50.994;13.650;2024-03-02T02:20:41;54.22;;;30.13;;
76131;SDS011;64877;50.994;13.650;2024-03-02T02:23:06;49.33;;;29.67;;
76131;SDS011;64877;50.994;13.650;2024-03-02T02:25:34;51.03;;;29.15;;
76131;SDS011;64877;50.994;13.650;2024-03-02T02:28:00;55.50;;;29.65;;
76131;SDS011;64877;50.994;13.650;2024-03-02T02:30:26;49.78;;;28.98;;
76131;SDS011;64877;50.994;13.650;2024-03-02T02:32:53;48.13;;;28.83;;
76131;SDS011;64877;50.994;13.650;2024-03-02T02:35:18;51.30;;;29.13;;
76131;SDS011;64877;50.994;13.650;2024-03-02T02:37:44;54.22;;;29.50;;
76131;SDS011;64877;50.994;13.650;2024-03-02T02:40:11;54.45;;;31.30;;
76131;SDS011;64877;50.994;13.650;2024-03-02T02:42:38;49.25;;;29.05;;
76131;SDS011;64877;50.994;13.650;2024-03-02T02:45:04;46.85;;;29.42;;
76131;SDS011;64877;50.994;13.650;2024-03-02T02:47:30;50.78;;;29.25;;
76131;SDS011;64877;50.994;13.650;2024-03-02T02:49:55;49.80;;;29.67;;
76131;SDS011;64877;50.994;13.650;2024-03-02T02:52:21;53.90;;;29.63;;
76131;SDS011;64877;50.994;13.650;2024-03-02T02:54:47;52.90;;;29.10;;
76131;SDS011;64877;50.994;13.650;2024-03-02T02:57:12;52.10;;;28.65;;
76131;SDS011;64877;50.994;13.650;2024-03-02T02:59:38;50.40;;;29.13;;
76131;SDS011;64877;50.994;13.650;2024-03-02T03:02:03;52.00;;;30.10;;
76131;SDS011;64877;50.994;13.650;2024-03-02T03:04:29;52.13;;;29.30;;
76131;SDS011;64877;50.994;13.650;2024-03-02T03:06:54;49.30;;;29.60;;
76131;SDS011;64877;50.994;13.650;2024-03-02T03:09:19;58.10;;;29.88;;
76131;SDS011;64877;50.994;13.650;2024-03-02T03:11:45;54.10;;;29.38;;
76131;SDS011;64877;50.994;13.650;2024-03-02T03:14:11;50.80;;;28.70;;
76131;SDS011;64877;50.994;13.650;2024-03-02T03:16:36;49.25;;;28.58;;
76131;SDS011;64877;50.994;13.650;2024-03-02T03:19:02;52.00;;;29.05;;
76131;SDS011;64877;50.994;13.650;2024-03-02T03:21:27;52.45;;;28.23;;
76131;SDS011;64877;50.994;13.650;2024-03-02T03:23:52;51.65;;;28.98;;
76131;SDS011;64877;50.994;13.650;2024-03-02T03:26:18;50.67;;;29.15;;
76131;SDS011;64877;50.994;13.650;2024-03-02T03:28:43;50.88;;;30.63;;
76131;SDS011;64877;50.994;13.650;2024-03-02T03:31:09;49.20;;;26.90;;
76131;SDS011;64877;50.994;13.650;2024-03-02T03:33:35;54.65;;;28.80;;
76131;SDS011;64877;50.994;13.650;2024-03-02T03:36:01;59.25;;;30.48;;
76131;SDS011;64877;50.994;13.650;2024-03-02T03:38:28;52.25;;;29.23;;
76131;SDS011;64877;50.994;13.650;2024-03-02T03:40:54;58.22;;;30.40;;
76131;SDS011;64877;50.994;13.650;2024-03-02T03:43:20;56.58;;;31.92;;
76131;SDS011;64877;50.994;13.650;2024-03-02T03:45:45;49.95;;;28.58;;
76131;SDS011;64877;50.994;13.650;2024-03-02T03:48:11;55.28;;;31.42;;
76131;SDS011;64877;50.994;13.650;2024-03-02T03:50:36;48.20;;;29.05;;
76131;SDS011;64877;50.994;13.650;2024-03-02T03:53:03;53.83;;;30.85;;
76131;SDS011;64877;50.994;13.650;2024-03-02T03:55:28;49.28;;;28.17;;
76131;SDS011;64877;50.994;13.650;2024-03-02T03:57:54;54.88;;;30.45;;
76131;SDS011;64877;50.994;13.650;2024-03-02T04:00:19;54.65;;;30.08;;
76131;SDS011;64877;50.994;13.650;2024-03-02T04:02:45;53.50;;;29.05;;
76131;SDS011;64877;50.994;13.650;2024-03-02T04:05:10;50.08;;;29.63;;
76131;SDS011;64877;50.994;13.650;2024-03-02T04:07:36;53.85;;;30.48;;
76131;SDS011;64877;50.994;13.650;2024-03-02T04:10:11;52.47;;;28.35;;
76131;SDS011;64877;50.994;13.650;2024-03-02T04:12:37;56.58;;;31.00;;
76131;SDS011;64877;50.994;13.650;2024-03-02T04:15:06;53.10;;;29.63;;
76131;SDS011;64877;50.994;13.650;2024-03-02T04:17:32;55.85;;;30.50;;
76131;SDS011;64877;50.994;13.650;2024-03-02T04:19:58;55.03;;;30.73;;
76131;SDS011;64877;50.994;13.650;2024-03-02T04:22:25;46.85;;;27.40;;
76131;SDS011;64877;50.994;13.650;2024-03-02T04:24:51;48.08;;;26.88;;
76131;SDS011;64877;50.994;13.650;2024-03-02T04:27:16;55.05;;;30.17;;
76131;SDS011;64877;50.994;13.650;2024-03-02T04:29:42;59.38;;;29.80;;
76131;SDS011;64877;50.994;13.650;2024-03-02T04:32:07;54.25;;;28.70;;
76131;SDS011;64877;50.994;13.650;2024-03-02T04:34:32;51.95;;;30.08;;
76131;SDS011;64877;50.994;13.650;2024-03-02T04:36:58;52.20;;;29.83;;
76131;SDS011;64877;50.994;13.650;2024-03-02T04:39:23;50.85;;;28.88;;
76131;SDS011;64877;50.994;13.650;2024-03-02T04:41:50;48.78;;;27.92;;
76131;SDS011;64877;50.994;13.650;2024-03-02T04:44:15;49.00;;;28.23;;
76131;SDS011;64877;50.994;13.650;2024-03-02T04:46:40;50.67;;;26.92;;
76131;SDS011;64877;50.994;13.650;2024-03-02T04:49:06;54.10;;;28.05;;
76131;SDS011;64877;50.994;13.650;2024-03-02T04:51:31;53.10;;;27.58;;
76131;SDS011;64877;50.994;13.650;2024-03-02T04:53:57;53.00;;;28.77;;
76131;SDS011;64877;50.994;13.650;2024-03-02T04:56:22;53.33;;;28.73;;
76131;SDS011;64877;50.994;13.650;2024-03-02T04:58:47;61.28;;;29.63;;
76131;SDS011;64877;50.994;13.650;2024-03-02T05:01:13;58.50;;;30.38;;
76131;SDS011;64877;50.994;13.650;2024-03-02T05:03:38;59.83;;;28.40;;
76131;SDS011;64877;50.994;13.650;2024-03-02T05:06:04;59.90;;;30.48;;
76131;SDS011;64877;50.994;13.650;2024-03-02T05:08:29;57.78;;;28.00;;
76131;SDS011;64877;50.994;13.650;2024-03-02T05:10:54;57.58;;;28.88;;
76131;SDS011;64877;50.994;13.650;2024-03-02T05:13:20;56.55;;;30.10;;
76131;SDS011;64877;50.994;13.650;2024-03-02T05:15:46;53.35;;;28.25;;
76131;SDS011;64877;50.994;13.650;2024-03-02T05:18:11;55.22;;;28.98;;
76131;SDS011;64877;50.994;13.650;2024-03-02T05:20:37;60.38;;;31.60;;
76131;SDS011;64877;50.994;13.650;2024-03-02T05:23:02;54.35;;;29.20;;
76131;SDS011;64877;50.994;13.650;2024-03-02T05:25:28;55.78;;;29.77;;
76131;SDS011;64877;50.994;13.650;2024-03-02T05:27:53;53.55;;;29.42;;
76131;SDS011;64877;50.994;13.650;2024-03-02T05:30:19;52.17;;;28.23;;
76131;SDS011;64877;50.994;13.650;2024-03-02T05:32:44;52.25;;;28.05;;
76131;SDS011;64877;50.994;13.650;2024-03-02T05:35:10;46.45;;;26.75;;
76131;SDS011;64877;50.994;13.650;2024-03-02T05:40:03;48.97;;;27.00;;
76131;SDS011;64877;50.994;13.650;2024-03-02T05:44:56;53.00;;;27.85;;
76131;SDS011;64877;50.994;13.650;2024-03-02T05:47:21;50.58;;;27.38;;
76131;SDS011;64877;50.994;13.650;2024-03-02T05:49:46;51.05;;;28.58;;
76131;SDS011;64877;50.994;13.650;2024-03-02T05:52:12;48.90;;;27.77;;
76131;SDS011;64877;50.994;13.650;2024-03-02T05:54:37;52.08;;;28.63;;
76131;SDS011;64877;50.994;13.650;2024-03-02T05:57:03;50.90;;;28.23;;
76131;SDS011;64877;50.994;13.650;2024-03-02T05:59:42;48.35;;;27.60;;
76131;SDS011;64877;50.994;13.650;2024-03-02T06:02:08;51.13;;;28.33;;
76131;SDS011;64877;50.994;13.650;2024-03-02T06:04:34;48.00;;;26.75;;
76131;SDS011;64877;50.994;13.650;2024-03-02T06:06:59;49.75;;;27.58;;
76131;SDS011;64877;50.994;13.650;2024-03-02T06:09:24;55.20;;;28.30;;
76131;SDS011;64877;50.994;13.650;2024-03-02T06:11:51;51.83;;;27.95;;
76131;SDS011;64877;50.994;13.650;2024-03-02T06:14:16;47.03;;;25.27;;
76131;SDS011;64877;50.994;13.650;2024-03-02T06:16:42;45.55;;;25.90;;
76131;SDS011;64877;50.994;13.650;2024-03-02T06:19:07;48.28;;;26.52;;
76131;SDS011;64877;50.994;13.650;2024-03-02T06:21:32;53.13;;;28.15;;
76131;SDS011;64877;50.994;13.650;2024-03-02T06:23:58;48.28;;;26.55;;
76131;SDS011;64877;50.994;13.650;2024-03-02T06:26:23;48.00;;;27.77;;
76131;SDS011;64877;50.994;13.650;2024-03-02T06:28:49;52.25;;;27.63;;
76131;SDS011;64877;50.994;13.650;2024-03-02T06:31:14;47.03;;;26.20;;
76131;SDS011;64877;50.994;13.650;2024-03-02T06:33:40;49.08;;;26.92;;
76131;SDS011;64877;50.994;13.650;2024-03-02T06:36:06;40.83;;;23.75;;
76131;SDS011;64877;50.994;13.650;2024-03-02T06:38:36;40.25;;;23.20;;
76131;SDS011;64877;50.994;13.650;2024-03-02T06:41:02;49.28;;;26.02;;
76131;SDS011;64877;50.994;13.650;2024-03-02T06:43:27;47.92;;;26.30;;
76131;SDS011;64877;50.994;13.650;2024-03-02T06:45:53;47.95;;;26.25;;
76131;SDS011;64877;50.994;13.650;2024-03-02T06:48:18;42.95;;;23.55;;
76131;SDS011;64877;50.994;13.650;2024-03-02T06:50:48;45.88;;;25.10;;
76131;SDS011;64877;50.994;13.650;2024-03-02T06:53:14;43.90;;;25.02;;
76131;SDS011;64877;50.994;13.650;2024-03-02T06:55:44;45.08;;;24.35;;
76131;SDS011;64877;50.994;13.650;2024-03-02T06:58:10;46.45;;;25.13;;
76131;SDS011;64877;50.994;13.650;2024-03-02T07:00:36;45.03;;;24.33;;
76131;SDS011;64877;50.994;13.650;2024-03-02T07:03:02;50.78;;;26.13;;
76131;SDS011;64877;50.994;13.650;2024-03-02T07:05:27;54.17;;;26.63;;
76131;SDS011;64877;50.994;13.650;2024-03-02T07:07:53;41.30;;;23.38;;
76131;SDS011;64877;50.994;13.650;2024-03-02T07:10:18;44.13;;;23.73;;
76131;SDS011;64877;50.994;13.650;2024-03-02T07:12:43;49.25;;;26.98;;
76131;SDS011;64877;50.994;13.650;2024-03-02T07:15:09;47.22;;;24.10;;
76131;SDS011;64877;50.994;13.650;2024-03-02T07:18:08;46.47;;;24.50;;
76131;SDS011;64877;50.994;13.650;2024-03-02T07:20:33;43.83;;;24.35;;
76131;SDS011;64877;50.994;13.650;2024-03-02T07:22:59;45.92;;;24.63;;
76131;SDS011;64877;50.994;13.650;2024-03-02T07:25:24;45.25;;;25.08;;
76131;SDS011;64877;50.994;13.650;2024-03-02T07:27:50;50.97;;;26.42;;
76131;SDS011;64877;50.994;13.650;2024-03-02T07:30:16;46.47;;;25.50;;
76131;SDS011;64877;50.994;13.650;2024-03-02T07:32:41;46.85;;;24.73;;
76131;SDS011;64877;50.994;13.650;2024-03-02T07:35:11;53.40;;;26.65;;
76131;SDS011;64877;50.994;13.650;2024-03-02T07:37:37;46.35;;;24.25;;
76131;SDS011;64877;50.994;13.650;2024-03-02T07:40:02;50.15;;;25.20;;
76131;SDS011;64877;50.994;13.650;2024-03-02T07:42:28;49.67;;;26.13;;
76131;SDS011;64877;50.994;13.650;2024-03-02T07:44:54;47.75;;;26.10;;
76131;SDS011;64877;50.994;13.650;2024-03-02T07:47:19;41.22;;;22.65;;
76131;SDS011;64877;50.994;13.650;2024-03-02T07:49:45;60.58;;;32.00;;
76131;SDS011;64877;50.994;13.650;2024-03-02T07:52:11;52.70;;;27.63;;
76131;SDS011;64877;50.994;13.650;2024-03-02T07:54:37;46.95;;;24.17;;
76131;SDS011;64877;50.994;13.650;2024-03-02T07:57:02;46.85;;;25.27;;
76131;SDS011;64877;50.994;13.650;2024-03-02T07:59:28;46.13;;;24.00;;
76131;SDS011;64877;50.994;13.650;2024-03-02T08:01:53;43.33;;;22.98;;
76131;SDS011;64877;50.994;13.650;2024-03-02T08:04:20;44.38;;;24.63;;
76131;SDS011;64877;50.994;13.650;2024-03-02T08:06:45;44.00;;;24.42;;
76131;SDS011;64877;50.994;13.650;2024-03-02T08:09:11;47.17;;;25.55;;
76131;SDS011;64877;50.994;13.650;2024-03-02T08:11:36;44.47;;;23.38;;
76131;SDS011;64877;50.994;13.650;2024-03-02T08:14:04;43.72;;;24.45;;
76131;SDS011;64877;50.994;13.650;2024-03-02T08:16:30;41.00;;;22.30;;
76131;SDS011;64877;50.994;13.650;2024-03-02T08:18:56;39.78;;;22.02;;
76131;SDS011;64877;50.994;13.650;2024-03-02T08:21:23;41.53;;;21.55;;
76131;SDS011;64877;50.994;13.650;2024-03-02T08:23:49;36.47;;;21.63;;
76131;SDS011;64877;50.994;13.650;2024-03-02T08:26:14;32.30;;;19.25;;
76131;SDS011;64877;50.994;13.650;2024-03-02T08:28:40;34.95;;;19.13;;
76131;SDS011;64877;50.994;13.650;2024-03-02T08:31:06;42.13;;;23.33;;
76131;SDS011;64877;50.994;13.650;2024-03-02T08:33:32;42.20;;;24.67;;
76131;SDS011;64877;50.994;13.650;2024-03-02T08:35:57;45.00;;;24.48;;
76131;SDS011;64877;50.994;13.650;2024-03-02T08:38:23;47.80;;;24.90;;
76131;SDS011;64877;50.994;13.650;2024-03-02T08:40:49;45.45;;;25.58;;
76131;SDS011;64877;50.994;13.650;2024-03-02T08:43:14;46.47;;;26.15;;
76131;SDS011;64877;50.994;13.650;2024-03-02T08:45:40;41.08;;;23.00;;
76131;SDS011;64877;50.994;13.650;2024-03-02T08:48:09;39.00;;;21.75;;
76131;SDS011;64877;50.994;13.650;2024-03-02T08:50:35;39.00;;;22.83;;
76131;SDS011;64877;50.994;13.650;2024-03-02T08:53:02;37.58;;;21.02;;
76131;SDS011;64877;50.994;13.650;2024-03-02T08:55:28;36.67;;;21.80;;
76131;SDS011;64877;50.994;13.650;2024-03-02T08:57:54;40.03;;;21.15;;
76131;SDS011;64877;50.994;13.650;2024-03-02T09:00:20;36.08;;;20.88;;
76131;SDS011;64877;50.994;13.650;2024-03-02T09:02:45;38.05;;;22.02;;
76131;SDS011;64877;50.994;13.650;2024-03-02T09:05:11;36.10;;;21.33;;
76131;SDS011;64877;50.994;13.650;2024-03-02T09:07:37;37.35;;;20.67;;
76131;SDS011;64877;50.994;13.650;2024-03-02T09:10:06;40.10;;;21.70;;
76131;SDS011;64877;50.994;13.650;2024-03-02T09:12:32;35.40;;;20.65;;
76131;SDS011;64877;50.994;13.650;2024-03-02T09:14:59;34.05;;;19.60;;
76131;SDS011;64877;50.994;13.650;2024-03-02T09:17:26;40.60;;;22.02;;
76131;SDS011;64877;50.994;13.650;2024-03-02T09:19:51;30.48;;;18.55;;
76131;SDS011;64877;50.994;13.650;2024-03-02T09:22:20;29.52;;;16.48;;
76131;SDS011;64877;50.994;13.650;2024-03-02T09:24:46;30.02;;;16.70;;
76131;SDS011;64877;50.994;13.650;2024-03-02T09:27:11;25.67;;;14.52;;
76131;SDS011;64877;50.994;13.650;2024-03-02T09:29:37;24.15;;;14.40;;
76131;SDS011;64877;50.994;13.650;2024-03-02T09:32:02;25.55;;;14.90;;
76131;SDS011;64877;50.994;13.650;2024-03-02T09:34:28;24.10;;;12.57;;
76131;SDS011;64877;50.994;13.650;2024-03-02T09:36:54;23.00;;;12.07;;
76131;SDS011;64877;50.994;13.650;2024-03-02T09:39:19;22.00;;;12.77;;
76131;SDS011;64877;50.994;13.650;2024-03-02T09:41:45;23.85;;;13.15;;
76131;SDS011;64877;50.994;13.650;2024-03-02T09:44:10;21.00;;;13.43;;
76131;SDS011;64877;50.994;13.650;2024-03-02T09:46:36;20.52;;;12.25;;
76131;SDS011;64877;50.994;13.650;2024-03-02T09:49:02;21.80;;;12.43;;
76131;SDS011;64877;50.994;13.650;2024-03-02T09:51:27;19.58;;;10.90;;
76131;SDS011;64877;50.994;13.650;2024-03-02T09:53:53;19.60;;;10.55;;
76131;SDS011;64877;50.994;13.650;2024-03-02T09:56:20;16.85;;;9.98;;
76131;SDS011;64877;50.994;13.650;2024-03-02T09:58:46;21.92;;;10.88;;
76131;SDS011;64877;50.994;13.650;2024-03-02T10:01:12;20.10;;;11.27;;
76131;SDS011;64877;50.994;13.650;2024-03-02T10:03:38;22.63;;;13.85;;
76131;SDS011;64877;50.994;13.650;2024-03-02T10:06:23;27.48;;;15.45;;
76131;SDS011;64877;50.994;13.650;2024-03-02T10:08:49;17.52;;;11.55;;
76131;SDS011;64877;50.994;13.650;2024-03-02T10:11:25;17.30;;;9.48;;
76131;SDS011;64877;50.994;13.650;2024-03-02T10:14:10;12.05;;;7.28;;
76131;SDS011;64877;50.994;13.650;2024-03-02T10:16:42;18.52;;;8.05;;
76131;SDS011;64877;50.994;13.650;2024-03-02T10:19:15;11.50;;;6.70;;
76131;SDS011;64877;50.994;13.650;2024-03-02T10:21:48;13.98;;;7.68;;
76131;SDS011;64877;50.994;13.650;2024-03-02T10:24:18;11.73;;;7.20;;
76131;SDS011;64877;50.994;13.650;2024-03-02T10:26:45;13.98;;;7.32;;
76131;SDS011;64877;50.994;13.650;2024-03-02T10:29:10;18.30;;;7.63;;
76131;SDS011;64877;50.994;13.650;2024-03-02T10:31:39;14.02;;;7.25;;
76131;SDS011;64877;50.994;13.650;2024-03-02T10:34:06;11.50;;;6.80;;
76131;SDS011;64877;50.994;13.650;2024-03-02T10:36:33;10.90;;;6.65;;
76131;SDS011;64877;50.994;13.650;2024-03-02T10:39:01;10.57;;;5.88;;
76131;SDS011;64877;50.994;13.650;2024-03-02T10:41:29;10.85;;;6.20;;
76131;SDS011;64877;50.994;13.650;2024-03-02T10:44:01;12.32;;;6.07;;
76131;SDS011;64877;50.994;13.650;2024-03-02T10:46:32;9.25;;;5.93;;
76131;SDS011;64877;50.994;13.650;2024-03-02T10:48:59;14.05;;;5.72;;
76131;SDS011;64877;50.994;13.650;2024-03-02T10:51:26;8.15;;;5.15;;
76131;SDS011;64877;50.994;13.650;2024-03-02T10:53:54;13.43;;;6.18;;
76131;SDS011;64877;50.994;13.650;2024-03-02T10:56:38;10.73;;;5.80;;
76131;SDS011;64877;50.994;13.650;2024-03-02T11:01:58;11.52;;;6.32;;
76131;SDS011;64877;50.994;13.650;2024-03-02T11:04:28;9.00;;;5.18;;
76131;SDS011;64877;50.994;13.650;2024-03-02T11:07:04;10.50;;;5.45;;
76131;SDS011;64877;50.994;13.650;2024-03-02T11:09:33;8.68;;;6.32;;
76131;SDS011;64877;50.994;13.650;2024-03-02T11:14:43;9.10;;;5.55;;
76131;SDS011;64877;50.994;13.650;2024-03-02T11:17:08;9.73;;;5.05;;
76131;SDS011;64877;50.994;13.650;2024-03-02T11:19:35;10.77;;;6.28;;
76131;SDS011;64877;50.994;13.650;2024-03-02T11:22:02;11.52;;;6.93;;
76131;SDS011;64877;50.994;13.650;2024-03-02T11:24:29;9.52;;;6.28;;
76131;SDS011;64877;50.994;13.650;2024-03-02T11:27:04;10.10;;;6.18;;
76131;SDS011;64877;50.994;13.650;2024-03-02T11:32:03;14.90;;;7.60;;
76131;SDS011;64877;50.994;13.650;2024-03-02T11:34:33;17.75;;;8.93;;
76131;SDS011;64877;50.994;13.650;2024-03-02T11:37:03;16.60;;;9.38;;
76131;SDS011;64877;50.994;13.650;2024-03-02T11:39:29;18.73;;;9.25;;
76131;SDS011;64877;50.994;13.650;2024-03-02T11:41:58;17.95;;;9.23;;
76131;SDS011;64877;50.994;13.650;2024-03-02T11:44:25;19.85;;;8.95;;
76131;SDS011;64877;50.994;13.650;2024-03-02T11:46:58;19.73;;;9.95;;
76131;SDS011;64877;50.994;13.650;2024-03-02T11:52:13;19.75;;;10.02;;
76131;SDS011;64877;50.994;13.650;2024-03-02T11:54:41;16.70;;;9.82;;
76131;SDS011;64877;50.994;13.650;2024-03-02T11:57:17;17.02;;;9.57;;
76131;SDS011;64877;50.994;13.650;2024-03-02T11:59:44;17.02;;;9.10;;
76131;SDS011;64877;50.994;13.650;2024-03-02T12:02:14;18.23;;;9.68;;
76131;SDS011;64877;50.994;13.650;2024-03-02T12:04:47;19.17;;;10.13;;
76131;SDS011;64877;50.994;13.650;2024-03-02T12:07:18;26.83;;;10.32;;
76131;SDS011;64877;50.994;13.650;2024-03-02T12:09:46;20.77;;;10.57;;
76131;SDS011;64877;50.994;13.650;2024-03-02T12:12:11;18.50;;;9.63;;
76131;SDS011;64877;50.994;13.650;2024-03-02T12:14:39;16.55;;;9.38;;
76131;SDS011;64877;50.994;13.650;2024-03-02T12:17:05;16.75;;;9.38;;
76131;SDS011;64877;50.994;13.650;2024-03-02T12:19:31;16.77;;;9.57;;
76131;SDS011;64877;50.994;13.650;2024-03-02T12:21:58;19.83;;;10.25;;
76131;SDS011;64877;50.994;13.650;2024-03-02T12:24:26;17.48;;;10.93;;
76131;SDS011;64877;50.994;13.650;2024-03-02T12:26:53;21.35;;;10.65;;
76131;SDS011;64877;50.994;13.650;2024-03-02T12:29:19;16.88;;;10.20;;
76131;SDS011;64877;50.994;13.650;2024-03-02T12:31:49;15.18;;;8.88;;
76131;SDS011;64877;50.994;13.650;2024-03-02T12:34:15;16.92;;;8.45;;
76131;SDS011;64877;50.994;13.650;2024-03-02T12:36:43;15.93;;;8.63;;
76131;SDS011;64877;50.994;13.650;2024-03-02T12:39:08;13.40;;;8.43;;
76131;SDS011;64877;50.994;13.650;2024-03-02T12:41:38;16.13;;;8.68;;
76131;SDS011;64877;50.994;13.650;2024-03-02T12:44:06;13.93;;;8.68;;
76131;SDS011;64877;50.994;13.650;2024-03-02T12:46:32;12.07;;;7.97;;
76131;SDS011;64877;50.994;13.650;2024-03-02T12:49:08;16.75;;;7.85;;
76131;SDS011;64877;50.994;13.650;2024-03-02T12:51:35;16.33;;;7.85;;
76131;SDS011;64877;50.994;13.650;2024-03-02T12:54:01;13.38;;;7.55;;
76131;SDS011;64877;50.994;13.650;2024-03-02T12:56:28;15.77;;;7.88;;
76131;SDS011;64877;50.994;13.650;2024-03-02T12:58:54;16.73;;;7.72;;
76131;SDS011;64877;50.994;13.650;2024-03-02T13:01:20;15.43;;;8.18;;
76131;SDS011;64877;50.994;13.650;2024-03-02T13:03:47;18.45;;;10.18;;
76131;SDS011;64877;50.994;13.650;2024-03-02T13:06:14;19.00;;;10.48;;
76131;SDS011;64877;50.994;13.650;2024-03-02T13:08:41;21.38;;;10.30;;
76131;SDS011;64877;50.994;13.650;2024-03-02T13:11:08;27.45;;;11.38;;
76131;SDS011;64877;50.994;13.650;2024-03-02T13:13:33;21.65;;;11.40;;
76131;SDS011;64877;50.994;13.650;2024-03-02T13:16:00;22.45;;;11.05;;
76131;SDS011;64877;50.994;13.650;2024-03-02T13:18:26;23.83;;;11.10;;
76131;SDS011;64877;50.994;13.650;2024-03-02T13:20:52;16.58;;;9.68;;
76131;SDS011;64877;50.994;13.650;2024-03-02T13:23:17;19.58;;;10.63;;
76131;SDS011;64877;50.994;13.650;2024-03-02T13:25:42;21.48;;;9.98;;
76131;SDS011;64877;50.994;13.650;2024-03-02T13:28:08;23.17;;;10.13;;
76131;SDS011;64877;50.994;13.650;2024-03-02T13:30:34;21.10;;;10.48;;
76131;SDS011;64877;50.994;13.650;2024-03-02T13:32:59;21.83;;;10.70;;
76131;SDS011;64877;50.994;13.650;2024-03-02T13:35:25;19.08;;;9.80;;
76131;SDS011;64877;50.994;13.650;2024-03-02T13:37:50;19.98;;;9.77;;
76131;SDS011;64877;50.994;13.650;2024-03-02T13:40:15;21.70;;;9.68;;
76131;SDS011;64877;50.994;13.650;2024-03-02T13:42:47;21.67;;;9.68;;
76131;SDS011;64877;50.994;13.650;2024-03-02T13:45:14;21.42;;;10.23;;
76131;SDS011;64877;50.994;13.650;2024-03-02T13:47:39;22.23;;;10.73;;
76131;SDS011;64877;50.994;13.650;2024-03-02T13:50:05;19.83;;;10.15;;
76131;SDS011;64877;50.994;13.650;2024-03-02T13:52:32;20.73;;;9.70;;
76131;SDS011;64877;50.994;13.650;2024-03-02T13:54:58;22.63;;;9.82;;
76131;SDS011;64877;50.994;13.650;2024-03-02T13:57:23;23.00;;;10.73;;
76131;SDS011;64877;50.994;13.650;2024-03-02T13:59:48;21.83;;;11.13;;
76131;SDS011;64877;50.994;13.650;2024-03-02T14:02:14;19.02;;;10.55;;
76131;SDS011;64877;50.994;13.650;2024-03-02T14:04:40;22.30;;;10.73;;
76131;SDS011;64877;50.994;13.650;2024-03-02T14:07:05;20.33;;;11.32;;
76131;SDS011;64877;50.994;13.650;2024-03-02T14:09:34;23.35;;;11.70;;
76131;SDS011;64877;50.994;13.650;2024-03-02T14:12:00;24.05;;;12.48;;
76131;SDS011;64877;50.994;13.650;2024-03-02T14:14:26;25.02;;;12.88;;
76131;SDS011;64877;50.994;13.650;2024-03-02T14:16:52;25.52;;;12.95;;
76131;SDS011;64877;50.994;13.650;2024-03-02T14:19:18;31.17;;;14.43;;
76131;SDS011;64877;50.994;13.650;2024-03-02T14:21:43;27.15;;;14.13;;
76131;SDS011;64877;50.994;13.650;2024-03-02T14:24:09;25.00;;;12.35;;
76131;SDS011;64877;50.994;13.650;2024-03-02T14:26:35;28.50;;;14.30;;
76131;SDS011;64877;50.994;13.650;2024-03-02T14:29:01;31.48;;;13.18;;